Time;durP1;ratioP1;P1;durP2;ratioP2;P2;SDS_P1;SDS_P2;PMS_P1;PMS_P2;Temp;Humidity;BMP_temperature;BMP_pressure;BME280_temperature;BME280_humidity;BME280_pressure;Samples;Min_cycle;Max_cycle;Signal;HPM_P1;HPM_P2
2023/04/23 00:02:05;;;;;;;1.57;1.37;;;13.40;99.90;;;;;;5058431;28;20449;-83
2023/04/23 00:04:33;;;;;;;1.60;1.50;;;13.40;99.90;;;;;;5086738;28;20430;-82
2023/04/23 00:06:59;;;;;;;1.80;1.20;;;13.40;99.90;;;;;;5078583;28;20392;-83
2023/04/23 00:09:28;;;;;;;2.30;1.20;;;13.40;99.90;;;;;;5063279;28;20394;-83
2023/04/23 00:11:55;;;;;;;1.20;1.10;;;13.50;99.90;;;;;;5079114;28;20384;-83
2023/04/23 00:14:20;;;;;;;1.80;1.00;;;13.50;99.90;;;;;;5078033;28;20429;-83
2023/04/23 00:16:46;;;;;;;1.90;1.40;;;13.40;99.90;;;;;;5059937;28;20380;-84
2023/04/23 00:19:12;;;;;;;1.20;1.10;;;13.50;99.90;;;;;;5076381;28;20396;-83
2023/04/23 00:21:37;;;;;;;1.60;1.07;;;13.40;99.90;;;;;;5060322;28;20758;-83
2023/04/23 00:24:03;;;;;;;1.00;0.90;;;13.50;99.90;;;;;;5078038;28;20794;-83
2023/04/23 00:26:28;;;;;;;1.85;1.20;;;13.50;99.90;;;;;;5076942;28;20781;-83
2023/04/23 00:28:54;;;;;;;1.20;1.10;;;13.50;99.90;;;;;;5068297;28;20495;-83
2023/04/23 00:31:21;;;;;;;1.30;1.20;;;13.40;99.90;;;;;;5062571;28;20474;-83
2023/04/23 00:33:47;;;;;;;1.40;1.20;;;13.40;99.90;;;;;;5080253;28;20380;-84
2023/04/23 00:36:12;;;;;;;1.75;1.40;;;13.30;99.90;;;;;;5079231;28;20410;-82
2023/04/23 00:38:38;;;;;;;1.58;1.23;;;13.20;99.90;;;;;;5079044;28;20384;-83
2023/04/23 00:41:04;;;;;;;1.40;1.30;;;13.00;99.90;;;;;;5078430;28;20658;-83
2023/04/23 00:43:30;;;;;;;1.90;1.20;;;12.90;99.90;;;;;;5059267;28;20382;-82
2023/04/23 00:45:56;;;;;;;1.50;1.25;;;12.80;99.90;;;;;;5088350;28;20479;-81
2023/04/23 00:48:22;;;;;;;1.50;1.20;;;12.70;99.90;;;;;;5061602;28;20963;-82
2023/04/23 00:50:47;;;;;;;1.35;1.25;;;12.60;99.90;;;;;;5077009;28;20384;-82
2023/04/23 00:53:13;;;;;;;1.30;1.20;;;12.60;99.90;;;;;;5079106;28;20432;-82
2023/04/23 00:55:39;;;;;;;2.23;1.20;;;12.60;99.90;;;;;;5076598;28;20391;-83
2023/04/23 00:58:05;;;;;;;1.20;1.10;;;12.50;99.90;;;;;;5053622;28;20414;-83
2023/04/23 01:00:32;;;;;;;1.00;1.00;;;12.60;99.90;;;;;;5048771;28;20386;-82
2023/04/23 01:02:58;;;;;;;1.15;1.05;;;12.50;99.90;;;;;;5049694;28;20382;-84
2023/04/23 01:05:24;;;;;;;3.88;1.20;;;12.50;99.90;;;;;;5049542;28;20406;-83
2023/04/23 01:07:50;;;;;;;1.20;1.00;;;12.40;99.90;;;;;;5055843;28;20400;-83
2023/04/23 01:10:16;;;;;;;0.85;0.85;;;12.50;99.90;;;;;;5055397;28;20400;-83
2023/04/23 01:12:42;;;;;;;1.20;1.10;;;12.40;99.90;;;;;;5072075;28;20386;-82
2023/04/23 01:15:08;;;;;;;1.60;1.20;;;12.30;99.90;;;;;;5070396;28;20421;-82
2023/04/23 01:17:33;;;;;;;1.10;0.90;;;12.30;99.90;;;;;;5054319;28;20385;-83
2023/04/23 01:19:59;;;;;;;0.95;0.95;;;12.30;99.90;;;;;;5072344;28;20435;-83
2023/04/23 01:22:25;;;;;;;1.10;1.00;;;12.20;99.90;;;;;;5054719;28;20382;-83
2023/04/23 01:24:51;;;;;;;1.10;1.00;;;12.10;99.90;;;;;;5055343;28;20413;-83
2023/04/23 01:27:18;;;;;;;1.10;1.00;;;12.00;99.90;;;;;;5071572;28;20831;-83
2023/04/23 01:29:46;;;;;;;0.85;0.85;;;12.00;99.90;;;;;;5070938;28;20384;-84
2023/04/23 01:32:11;;;;;;;0.80;0.80;;;11.90;99.90;;;;;;5071299;28;20380;-84
2023/04/23 01:34:38;;;;;;;0.70;0.70;;;11.90;99.90;;;;;;5054798;28;20389;-83
2023/04/23 01:37:04;;;;;;;1.10;1.00;;;11.90;99.90;;;;;;5053791;28;20401;-83
2023/04/23 01:39:29;;;;;;;1.40;0.70;;;11.80;99.90;;;;;;5054824;28;20373;-83
2023/04/23 01:41:56;;;;;;;1.50;1.20;;;11.70;99.90;;;;;;5054391;28;20396;-83
2023/04/23 01:44:21;;;;;;;4.53;0.90;;;11.80;99.90;;;;;;5072145;28;20472;-83
2023/04/23 01:46:47;;;;;;;0.70;0.70;;;11.80;99.90;;;;;;5046927;28;20393;-84
2023/04/23 01:49:13;;;;;;;0.70;0.70;;;11.70;99.90;;;;;;5042373;28;20464;-84
2023/04/23 01:51:38;;;;;;;1.00;0.90;;;11.60;99.90;;;;;;5060040;28;20763;-83
2023/04/23 01:54:04;;;;;;;1.07;0.93;;;11.60;99.90;;;;;;5058986;28;20386;-83
2023/04/23 01:56:32;;;;;;;1.10;0.67;;;11.70;99.90;;;;;;5058561;28;20810;-83
2023/04/23 01:58:57;;;;;;;0.80;0.70;;;11.50;99.90;;;;;;5053667;28;20912;-83
2023/04/23 02:01:23;;;;;;;1.00;0.80;;;11.60;99.90;;;;;;5077634;28;20376;-83
2023/04/23 02:03:49;;;;;;;1.40;0.70;;;11.70;99.90;;;;;;5058876;28;20479;-83
2023/04/23 02:06:15;;;;;;;1.20;1.00;;;11.70;99.90;;;;;;5064504;28;20399;-83
2023/04/23 02:08:41;;;;;;;0.70;0.70;;;11.60;99.90;;;;;;5086520;28;20380;-83
2023/04/23 02:11:06;;;;;;;0.70;0.60;;;11.60;99.90;;;;;;5080526;28;20395;-84
2023/04/23 02:13:32;;;;;;;1.10;0.60;;;11.60;99.90;;;;;;5080026;28;20391;-83
2023/04/23 02:15:58;;;;;;;0.90;0.70;;;11.80;99.90;;;;;;5059433;28;20387;-83
2023/04/23 02:18:24;;;;;;;0.80;0.60;;;11.80;99.90;;;;;;5076507;28;20730;-83
2023/04/23 02:20:49;;;;;;;1.40;0.77;;;11.90;99.90;;;;;;5076941;28;20451;-83
2023/04/23 02:23:15;;;;;;;0.50;0.40;;;11.90;99.90;;;;;;5076022;28;20392;-84
2023/04/23 02:25:42;;;;;;;0.90;0.50;;;12.00;99.90;;;;;;5074781;28;20773;-84
2023/04/23 02:28:10;;;;;;;1.38;0.65;;;11.90;99.90;;;;;;5074443;28;20418;-83
2023/04/23 02:30:36;;;;;;;0.90;0.68;;;11.80;99.90;;;;;;5085110;28;20394;-82
2023/04/23 02:33:02;;;;;;;0.80;0.60;;;11.90;99.90;;;;;;5079798;28;20395;-84
2023/04/23 02:35:28;;;;;;;0.60;0.50;;;11.90;99.90;;;;;;5075069;28;20391;-84
2023/04/23 02:37:53;;;;;;;1.10;0.50;;;11.80;99.90;;;;;;5075047;28;20450;-82
2023/04/23 02:40:19;;;;;;;0.73;0.57;;;12.00;99.90;;;;;;5056589;28;20750;-83
2023/04/23 02:42:45;;;;;;;0.80;0.60;;;11.80;99.90;;;;;;5056867;28;20391;-83
2023/04/23 02:45:10;;;;;;;0.70;0.60;;;11.70;99.90;;;;;;5056711;28;20400;-83
2023/04/23 02:47:37;;;;;;;0.70;0.70;;;11.80;99.90;;;;;;5074115;28;20468;-82
2023/04/23 02:50:05;;;;;;;0.60;0.50;;;11.90;99.90;;;;;;5074856;28;20387;-83
2023/04/23 02:52:31;;;;;;;1.70;0.50;;;11.90;99.90;;;;;;5056223;28;20429;-82
2023/04/23 02:54:56;;;;;;;1.00;0.80;;;11.90;99.90;;;;;;5055833;28;20391;-83
2023/04/23 02:57:22;;;;;;;0.90;0.60;;;11.70;99.90;;;;;;5055169;28;20411;-83
2023/04/23 02:59:49;;;;;;;0.70;0.70;;;11.90;99.90;;;;;;5035858;28;20393;-83
2023/04/23 03:02:14;;;;;;;1.08;0.70;;;12.00;99.90;;;;;;5053681;28;20492;-83
2023/04/23 03:04:40;;;;;;;0.50;0.50;;;11.90;99.90;;;;;;5053618;28;20440;-83
2023/04/23 03:07:05;;;;;;;0.70;0.60;;;11.90;99.90;;;;;;5053642;28;20392;-82
2023/04/23 03:09:31;;;;;;;0.80;0.70;;;11.90;99.90;;;;;;5036810;28;20382;-83
2023/04/23 03:11:57;;;;;;;0.70;0.50;;;12.00;99.90;;;;;;5053688;28;20480;-82
2023/04/23 03:14:22;;;;;;;0.70;0.60;;;12.00;99.90;;;;;;5036641;28;20471;-82
2023/04/23 03:16:48;;;;;;;0.80;0.60;;;12.00;99.90;;;;;;5060435;28;20902;-83
2023/04/23 03:19:14;;;;;;;1.20;0.43;;;11.90;99.90;;;;;;5055119;28;20392;-82
2023/04/23 03:21:39;;;;;;;2.00;0.80;;;12.00;99.90;;;;;;5036836;28;20377;-83
2023/04/23 03:24:05;;;;;;;0.90;0.50;;;12.00;99.90;;;;;;5058585;28;21025;-82
2023/04/23 03:26:31;;;;;;;0.50;0.40;;;12.20;99.90;;;;;;5058323;28;20473;-83
2023/04/23 03:28:56;;;;;;;0.63;0.50;;;12.20;99.90;;;;;;5060457;28;20380;-83
2023/04/23 03:31:22;;;;;;;0.90;0.75;;;12.30;99.90;;;;;;5060257;28;20411;-83
2023/04/23 03:33:47;;;;;;;0.67;0.60;;;12.30;99.90;;;;;;5057269;28;20798;-82
2023/04/23 03:36:14;;;;;;;0.70;0.60;;;12.30;99.90;;;;;;5036357;28;20404;-82
2023/04/23 03:38:40;;;;;;;1.17;1.08;;;12.20;99.90;;;;;;5056903;28;20389;-83
2023/04/23 03:41:05;;;;;;;0.80;0.50;;;12.20;99.90;;;;;;5039918;28;20381;-83
2023/04/23 03:43:30;;;;;;;0.90;0.40;;;12.20;99.90;;;;;;5057450;28;20472;-83
2023/04/23 03:45:56;;;;;;;0.60;0.50;;;12.20;99.90;;;;;;5040630;28;20991;-83
2023/04/23 03:48:21;;;;;;;2.05;0.68;;;12.20;99.90;;;;;;5040911;28;20491;-82
2023/04/23 03:50:47;;;;;;;0.90;0.80;;;12.10;99.90;;;;;;5058486;28;20500;-83
2023/04/23 03:53:13;;;;;;;0.60;0.57;;;12.10;99.90;;;;;;5039751;28;20389;-82
2023/04/23 03:55:38;;;;;;;1.00;0.70;;;12.30;99.90;;;;;;5058204;28;21028;-83
2023/04/23 03:58:04;;;;;;;0.73;0.50;;;12.30;99.90;;;;;;5064801;28;20490;-82
2023/04/23 04:00:29;;;;;;;0.60;0.60;;;12.20;99.90;;;;;;5078316;28;20392;-82
2023/04/23 04:02:55;;;;;;;0.90;0.70;;;12.20;99.90;;;;;;5077916;28;20380;-82
2023/04/23 04:05:21;;;;;;;1.10;0.60;;;12.20;99.90;;;;;;5088088;28;20481;-84
2023/04/23 04:07:47;;;;;;;0.90;0.80;;;12.20;99.90;;;;;;5083612;28;20376;-83
2023/04/23 04:10:14;;;;;;;0.70;0.70;;;12.20;99.90;;;;;;5060549;28;20877;-83
2023/04/23 04:12:40;;;;;;;0.77;0.70;;;12.30;99.90;;;;;;5059728;28;20893;-82
2023/04/23 04:15:07;;;;;;;0.80;0.60;;;12.30;99.90;;;;;;5065105;28;20391;-83
2023/04/23 04:17:32;;;;;;;0.70;0.70;;;12.40;99.90;;;;;;5073830;28;20380;-82
2023/04/23 04:19:57;;;;;;;0.90;0.70;;;12.50;99.90;;;;;;5081465;28;20441;-82
2023/04/23 04:22:23;;;;;;;1.00;0.70;;;12.60;99.90;;;;;;5077778;28;20393;-82
2023/04/23 04:24:51;;;;;;;1.00;0.90;;;12.50;99.90;;;;;;5077826;28;20403;-82
2023/04/23 04:27:17;;;;;;;0.80;0.70;;;12.50;99.90;;;;;;5075496;28;20383;-83
2023/04/23 04:29:42;;;;;;;0.70;0.60;;;12.50;99.90;;;;;;5078043;28;20872;-83
2023/04/23 04:32:08;;;;;;;0.77;0.70;;;12.50;99.90;;;;;;5075896;28;20376;-82
2023/04/23 04:34:35;;;;;;;0.73;0.73;;;12.40;99.90;;;;;;5076902;28;20392;-82
2023/04/23 04:37:00;;;;;;;1.60;1.05;;;12.30;99.90;;;;;;5076562;28;20414;-82
2023/04/23 04:39:26;;;;;;;1.10;0.80;;;12.30;99.90;;;;;;5076775;28;20376;-82
2023/04/23 04:41:52;;;;;;;1.80;0.77;;;12.40;99.90;;;;;;5076972;28;20479;-82
2023/04/23 04:44:17;;;;;;;1.70;0.80;;;12.40;99.90;;;;;;5058591;28;20506;-83
2023/04/23 04:46:43;;;;;;;1.70;0.90;;;12.30;99.90;;;;;;5077170;28;20462;-82
2023/04/23 04:49:10;;;;;;;1.80;1.00;;;12.30;99.90;;;;;;5058690;28;20449;-83
2023/04/23 04:51:36;;;;;;;0.88;0.88;;;12.40;99.90;;;;;;5058743;28;20478;-82
2023/04/23 04:54:01;;;;;;;0.75;0.75;;;12.50;99.90;;;;;;5059008;28;20950;-83
2023/04/23 04:56:27;;;;;;;1.00;0.80;;;12.50;99.90;;;;;;5076038;28;20475;-82
2023/04/23 04:58:52;;;;;;;0.70;0.70;;;12.40;99.90;;;;;;5075613;28;20479;-82
2023/04/23 05:01:20;;;;;;;1.20;1.00;;;12.40;99.90;;;;;;5069342;28;20377;-82
2023/04/23 05:03:45;;;;;;;1.53;1.10;;;12.50;99.90;;;;;;5056259;28;20392;-82
2023/04/23 05:06:11;;;;;;;1.23;1.10;;;12.50;99.90;;;;;;5038236;28;20895;-83
2023/04/23 05:08:36;;;;;;;1.05;0.90;;;12.50;99.90;;;;;;5056649;28;20396;-82
2023/04/23 05:11:02;;;;;;;1.00;0.90;;;12.50;99.90;;;;;;5039249;28;20381;-83
2023/04/23 05:13:28;;;;;;;2.60;1.10;;;12.40;99.90;;;;;;5038270;28;20401;-83
2023/04/23 05:15:53;;;;;;;1.40;1.20;;;12.50;99.90;;;;;;5038005;28;20390;-83
2023/04/23 05:18:19;;;;;;;1.40;1.30;;;12.60;99.90;;;;;;5056459;28;20502;-82
2023/04/23 05:20:45;;;;;;;1.13;1.03;;;12.60;99.90;;;;;;5061358;28;20446;-82
2023/04/23 05:23:11;;;;;;;2.40;1.67;;;12.70;99.90;;;;;;5070224;28;20385;-82
2023/04/23 05:25:36;;;;;;;1.20;1.10;;;12.60;99.90;;;;;;5069816;28;20479;-82
2023/04/23 05:28:02;;;;;;;1.30;1.20;;;12.70;99.90;;;;;;5044384;28;20450;-83
2023/04/23 05:30:27;;;;;;;1.87;1.30;;;12.70;99.90;;;;;;5056569;28;20434;-82
2023/04/23 05:32:53;;;;;;;1.60;1.40;;;12.70;99.90;;;;;;5055942;28;20898;-83
2023/04/23 05:35:19;;;;;;;1.70;1.60;;;12.70;99.90;;;;;;5056921;28;20392;-82
2023/04/23 05:37:44;;;;;;;2.08;1.58;;;12.70;99.90;;;;;;5037770;28;20382;-82
2023/04/23 05:40:10;;;;;;;1.50;1.40;;;12.80;99.90;;;;;;5056385;28;20451;-83
2023/04/23 05:42:36;;;;;;;1.60;1.50;;;12.80;99.90;;;;;;5038191;28;20400;-82
2023/04/23 05:45:02;;;;;;;1.23;1.13;;;12.70;99.90;;;;;;5037924;28;20933;-82
2023/04/23 05:47:28;;;;;;;1.77;1.47;;;12.70;99.90;;;;;;5055320;28;20388;-83
2023/04/23 05:49:56;;;;;;;2.25;1.50;;;12.70;99.90;;;;;;5037949;28;20387;-83
2023/04/23 05:52:22;;;;;;;1.67;1.58;;;12.70;99.90;;;;;;5055911;28;20385;-83
2023/04/23 05:54:48;;;;;;;1.63;1.52;;;12.60;99.90;;;;;;5037415;28;20396;-83
2023/04/23 05:57:13;;;;;;;1.40;1.30;;;12.40;99.90;;;;;;5055528;28;20402;-83
2023/04/23 05:59:39;;;;;;;1.80;1.50;;;12.30;99.90;;;;;;5057201;28;20446;-83
2023/04/23 06:02:04;;;;;;;1.80;1.20;;;12.30;99.90;;;;;;5058208;28;20945;-83
2023/04/23 06:04:30;;;;;;;1.30;1.20;;;12.00;99.90;;;;;;5075117;28;20410;-83
2023/04/23 06:06:55;;;;;;;2.70;1.70;;;12.00;99.90;;;;;;5057477;28;20478;-84
2023/04/23 06:09:21;;;;;;;2.50;1.50;;;12.10;99.90;;;;;;5078450;28;20384;-82
2023/04/23 06:11:49;;;;;;;1.20;1.10;;;12.00;99.90;;;;;;5077855;28;20380;-83
2023/04/23 06:14:15;;;;;;;1.30;1.20;;;12.10;99.90;;;;;;5058805;28;20396;-83
2023/04/23 06:16:40;;;;;;;1.30;1.17;;;12.00;99.90;;;;;;5077381;28;20386;-84
2023/04/23 06:19:06;;;;;;;2.20;1.20;;;12.00;99.90;;;;;;5077310;28;20399;-83
2023/04/23 06:21:31;;;;;;;1.25;1.15;;;12.00;99.90;;;;;;5077427;28;20384;-84
2023/04/23 06:23:57;;;;;;;1.30;1.20;;;12.00;99.90;;;;;;5077850;28;20394;-84
2023/04/23 06:26:23;;;;;;;2.20;1.80;;;12.20;99.90;;;;;;5076025;28;20375;-83
2023/04/23 06:28:48;;;;;;;1.63;1.52;;;12.40;99.90;;;;;;5076904;28;20387;-83
2023/04/23 06:31:14;;;;;;;1.60;1.50;;;12.60;99.90;;;;;;5083125;28;20470;-83
2023/04/23 06:33:39;;;;;;;1.50;1.40;;;12.60;99.90;;;;;;5060038;28;20422;-84
2023/04/23 06:36:08;;;;;;;1.60;1.50;;;12.60;99.90;;;;;;5058648;28;20763;-83
2023/04/23 06:38:33;;;;;;;2.20;1.30;;;12.70;99.90;;;;;;5076640;28;20395;-84
2023/04/23 06:40:59;;;;;;;1.70;1.60;;;12.80;99.90;;;;;;5077013;28;20384;-83
2023/04/23 06:43:25;;;;;;;1.90;1.60;;;12.80;99.90;;;;;;5050088;28;20470;-84
2023/04/23 06:45:50;;;;;;;1.80;1.65;;;12.90;99.90;;;;;;5052806;28;20447;-84
2023/04/23 06:48:17;;;;;;;1.80;1.70;;;13.10;99.90;;;;;;5069314;28;20385;-84
2023/04/23 06:50:43;;;;;;;1.70;1.60;;;13.20;99.90;;;;;;5046892;28;20402;-85
2023/04/23 06:53:09;;;;;;;1.80;1.70;;;13.20;99.90;;;;;;5067158;28;20402;-84
2023/04/23 06:55:34;;;;;;;1.40;1.30;;;13.40;99.90;;;;;;5066431;28;20392;-84
2023/04/23 06:58:00;;;;;;;1.97;1.80;;;13.30;99.90;;;;;;5069748;28;20397;-84
2023/04/23 07:00:26;;;;;;;2.20;1.60;;;13.20;99.90;;;;;;5040111;28;20464;-84
2023/04/23 07:02:51;;;;;;;1.60;1.45;;;13.10;99.90;;;;;;5041231;28;20385;-84
2023/04/23 07:05:17;;;;;;;1.80;1.70;;;13.10;99.90;;;;;;5055511;28;20759;-84
2023/04/23 07:07:43;;;;;;;2.10;1.60;;;13.20;99.90;;;;;;5055263;28;20389;-84
2023/04/23 07:10:11;;;;;;;1.83;1.70;;;13.20;99.90;;;;;;5055279;28;20404;-83
2023/04/23 07:12:38;;;;;;;2.30;1.95;;;13.30;99.90;;;;;;5058402;28;21123;-83
2023/04/23 07:15:04;;;;;;;1.70;1.60;;;13.30;99.90;;;;;;5041255;28;20476;-83
2023/04/23 07:17:30;;;;;;;2.20;1.55;;;13.40;99.90;;;;;;5041000;28;20480;-82
2023/04/23 07:19:55;;;;;;;2.53;1.90;;;13.50;99.90;;;;;;5060135;28;20412;-83
2023/04/23 07:22:22;;;;;;;2.80;1.60;;;13.60;99.90;;;;;;5041149;28;20456;-82
2023/04/23 07:24:48;;;;;;;1.70;1.60;;;13.70;99.90;;;;;;5059323;28;20405;-82
2023/04/23 07:27:13;;;;;;;1.70;1.60;;;13.70;99.90;;;;;;5058614;28;20495;-83
2023/04/23 07:29:39;;;;;;;1.60;1.50;;;13.70;99.90;;;;;;5042121;28;20385;-83
2023/04/23 07:32:04;;;;;;;2.90;1.67;;;13.80;99.90;;;;;;5042460;28;20388;-84
2023/04/23 07:34:30;;;;;;;2.43;1.90;;;13.80;99.90;;;;;;5041408;28;20381;-83
2023/04/23 07:36:56;;;;;;;1.70;1.60;;;14.00;99.90;;;;;;5059446;28;20404;-83
2023/04/23 07:39:21;;;;;;;1.95;1.85;;;14.00;99.90;;;;;;5042732;28;20388;-83
2023/04/23 07:41:47;;;;;;;1.77;1.67;;;14.00;99.90;;;;;;5060870;28;20747;-83
2023/04/23 07:44:12;;;;;;;2.50;1.90;;;14.10;99.90;;;;;;5043293;28;20408;-83
2023/04/23 07:46:38;;;;;;;1.90;1.70;;;14.20;98.10;;;;;;5058927;28;20436;-82
2023/04/23 07:49:04;;;;;;;2.08;1.70;;;14.20;99.00;;;;;;5058790;28;20875;-83
2023/04/23 07:51:30;;;;;;;1.90;1.70;;;14.40;95.80;;;;;;5059089;28;20385;-83
2023/04/23 07:53:57;;;;;;;1.85;1.75;;;14.30;94.30;;;;;;5058596;28;20384;-82
2023/04/23 07:56:23;;;;;;;2.80;1.70;;;14.50;93.20;;;;;;5041037;28;20428;-82
2023/04/23 07:58:49;;;;;;;2.03;1.83;;;14.60;91.70;;;;;;5054167;28;20418;-83
2023/04/23 08:01:15;;;;;;;2.10;1.50;;;14.40;93.60;;;;;;5061108;28;20608;-83
2023/04/23 08:03:41;;;;;;;3.25;1.70;;;14.60;78.60;;;;;;5078586;28;20383;-83
2023/04/23 08:06:09;;;;;;;1.98;1.70;;;14.60;81.00;;;;;;5077932;28;20408;-83
2023/04/23 08:08:34;;;;;;;2.60;1.70;;;14.80;75.50;;;;;;5078806;28;20380;-83
2023/04/23 08:11:00;;;;;;;2.20;2.00;;;14.90;81.10;;;;;;5078837;28;20869;-83
2023/04/23 08:13:25;;;;;;;2.00;1.50;;;14.80;75.00;;;;;;5078735;28;20383;-82
2023/04/23 08:15:51;;;;;;;1.63;1.53;;;14.80;82.00;;;;;;5077621;28;20391;-81
2023/04/23 08:18:17;;;;;;;2.90;1.70;;;15.00;65.30;;;;;;5059922;28;20438;-82
2023/04/23 08:20:42;;;;;;;1.67;1.58;;;14.90;71.30;;;;;;5083908;28;20379;-81
2023/04/23 08:23:08;;;;;;;1.83;1.50;;;15.00;67.60;;;;;;5078841;28;20391;-81
2023/04/23 08:25:34;;;;;;;1.60;1.50;;;15.10;73.80;;;;;;5077088;28;20453;-81
2023/04/23 08:27:59;;;;;;;1.60;1.30;;;15.20;62.40;;;;;;5076992;28;20372;-82
2023/04/23 08:30:25;;;;;;;3.00;1.60;;;15.20;61.00;;;;;;5059116;28;20416;-81
2023/04/23 08:32:54;;;;;;;3.90;1.50;;;15.20;56.80;;;;;;5066804;28;20383;-82
2023/04/23 08:35:20;;;;;;;1.70;1.40;;;15.50;57.00;;;;;;5076732;28;20384;-81
2023/04/23 08:37:46;;;;;;;2.00;1.70;;;15.60;50.10;;;;;;5058433;28;20758;-83
2023/04/23 08:40:12;;;;;;;2.47;1.60;;;15.70;51.10;;;;;;5075826;28;20386;-83
2023/04/23 08:43:00;;;;;;;1.50;1.40;;;15.80;51.20;;;;;;5065574;28;20477;-82
2023/04/23 08:45:27;;;;;;;1.50;1.40;;;15.70;49.50;;;;;;5069409;28;20407;-83
2023/04/23 08:47:58;;;;;;;1.40;1.30;;;15.90;47.10;;;;;;5072749;28;20455;-82
2023/04/23 08:50:24;;;;;;;1.70;1.60;;;15.80;51.40;;;;;;5046523;28;20386;-82
2023/04/23 08:52:52;;;;;;;1.60;1.50;;;15.90;44.30;;;;;;5047103;28;20380;-83
2023/04/23 08:55:20;;;;;;;1.50;1.40;;;15.90;48.60;;;;;;5048510;28;20931;-83
2023/04/23 08:57:46;;;;;;;1.70;1.50;;;16.10;47.60;;;;;;5064840;28;20478;-83
2023/04/23 09:00:14;;;;;;;3.00;1.50;;;16.30;47.00;;;;;;5063014;28;20533;-82
2023/04/23 09:02:41;;;;;;;2.10;1.50;;;16.20;44.90;;;;;;5066379;28;20406;-82
2023/04/23 09:05:07;;;;;;;1.50;1.40;;;16.20;47.50;;;;;;5049995;28;20412;-81
2023/04/23 09:07:34;;;;;;;1.88;1.45;;;16.40;49.00;;;;;;5058455;28;20389;-82
2023/04/23 09:10:05;;;;;;;1.35;1.13;;;16.60;40.00;;;;;;5040392;28;20816;-82
2023/04/23 09:12:31;;;;;;;1.40;1.30;;;16.40;42.70;;;;;;5038412;28;20456;-82
2023/04/23 09:14:58;;;;;;;2.70;1.40;;;16.10;47.70;;;;;;5038054;28;20463;-82
2023/04/23 09:17:28;;;;;;;1.55;1.45;;;16.20;44.40;;;;;;5038977;28;20389;-82
2023/04/23 09:19:54;;;;;;;1.30;1.20;;;16.10;43.50;;;;;;5053896;28;20414;-81
2023/04/23 09:22:57;;;;;;;2.50;1.40;;;16.50;41.50;;;;;;5060581;28;20455;-81
2023/04/23 09:25:23;;;;;;;1.40;1.30;;;17.00;42.50;;;;;;5060317;28;20474;-82
2023/04/23 09:27:51;;;;;;;2.00;1.42;;;16.80;39.60;;;;;;5079421;28;20486;-82
2023/04/23 09:30:17;;;;;;;1.27;1.17;;;16.70;41.30;;;;;;5048821;28;20381;-82
2023/04/23 09:32:44;;;;;;;3.22;1.38;;;16.90;41.40;;;;;;5064518;28;21086;-82
2023/04/23 09:35:15;;;;;;;1.80;1.40;;;17.10;40.60;;;;;;5071650;28;20460;-82
2023/04/23 09:37:42;;;;;;;1.40;1.20;;;17.00;37.50;;;;;;5044357;28;20396;-82
2023/04/23 09:40:12;;;;;;;1.65;1.30;;;17.00;38.90;;;;;;5049262;28;20989;-82
2023/04/23 09:42:37;;;;;;;1.33;1.23;;;17.40;34.80;;;;;;5064892;28;20409;-82
2023/04/23 09:45:06;;;;;;;2.20;1.30;;;17.70;29.90;;;;;;5053053;28;20944;-82
2023/04/23 09:47:38;;;;;;;1.40;1.30;;;17.50;29.30;;;;;;5078955;28;20391;-81
2023/04/23 09:50:04;;;;;;;1.70;1.20;;;17.40;29.00;;;;;;5061579;28;20388;-82
2023/04/23 09:52:31;;;;;;;2.20;1.10;;;17.40;30.40;;;;;;5066498;28;20393;-83
2023/04/23 09:54:58;;;;;;;1.05;1.00;;;17.40;34.60;;;;;;5064463;28;20403;-82
2023/04/23 09:57:25;;;;;;;1.42;1.20;;;17.00;33.80;;;;;;5064606;28;20405;-83
2023/04/23 09:59:50;;;;;;;1.70;1.20;;;16.90;30.60;;;;;;5044624;28;20447;-82
2023/04/23 10:02:16;;;;;;;1.55;1.30;;;17.00;36.10;;;;;;5066271;28;20395;-81
2023/04/23 10:04:42;;;;;;;1.40;1.30;;;17.00;36.50;;;;;;5055635;28;20395;-82
2023/04/23 10:07:12;;;;;;;1.80;1.30;;;16.90;37.70;;;;;;5072550;28;20411;-82
2023/04/23 10:09:40;;;;;;;1.42;1.33;;;17.20;37.30;;;;;;5054418;28;20399;-83
2023/04/23 10:12:06;;;;;;;2.50;1.30;;;17.30;36.10;;;;;;5041253;28;20413;-82
2023/04/23 10:14:32;;;;;;;1.92;1.50;;;17.40;33.20;;;;;;5041130;28;20391;-84
2023/04/23 10:17:00;;;;;;;1.20;1.10;;;17.50;34.70;;;;;;5041095;28;20400;-84
2023/04/23 10:19:27;;;;;;;2.00;1.10;;;17.40;28.60;;;;;;5060700;28;20900;-83
2023/04/23 10:22:04;;;;;;;1.42;1.23;;;17.30;27.50;;;;;;5060798;28;20385;-83
2023/04/23 10:24:34;;;;;;;2.50;1.00;;;17.40;27.30;;;;;;5063795;28;20464;-83
2023/04/23 10:27:07;;;;;;;2.00;1.20;;;17.20;26.00;;;;;;5050307;28;20396;-83
2023/04/23 10:29:34;;;;;;;1.50;1.02;;;17.50;25.60;;;;;;5064383;28;20375;-83
2023/04/23 10:32:02;;;;;;;1.40;0.80;;;17.60;25.20;;;;;;5046204;28;20413;-84
2023/04/23 10:34:29;;;;;;;1.00;0.73;;;17.50;23.20;;;;;;5066209;28;20400;-83
2023/04/23 10:36:58;;;;;;;1.90;0.80;;;17.50;24.60;;;;;;5062824;28;20393;-85
2023/04/23 10:39:26;;;;;;;1.65;1.02;;;17.70;23.20;;;;;;5048009;28;20389;-84
2023/04/23 10:41:54;;;;;;;2.35;0.93;;;17.70;22.00;;;;;;5064447;28;20386;-85
2023/04/23 10:44:20;;;;;;;1.60;0.90;;;17.60;22.30;;;;;;5068991;28;20399;-84
2023/04/23 10:46:55;;;;;;;0.82;0.80;;;17.70;21.70;;;;;;5068967;28;20899;-84
2023/04/23 10:49:28;;;;;;;1.00;0.90;;;17.80;20.60;;;;;;5041420;28;20822;-83
2023/04/23 10:52:07;;;;;;;1.80;1.00;;;17.60;23.50;;;;;;5055995;28;20386;-81
2023/04/23 10:54:33;;;;;;;2.80;1.10;;;17.70;23.40;;;;;;5063875;28;20397;-84
2023/04/23 10:57:05;;;;;;;1.30;0.80;;;17.80;19.30;;;;;;5072067;28;20980;-84
2023/04/23 10:59:32;;;;;;;1.20;0.80;;;17.80;18.60;;;;;;5065688;28;20402;-83
2023/04/23 11:02:07;;;;;;;0.82;0.73;;;17.90;18.70;;;;;;5094377;28;20409;-84
2023/04/23 11:04:34;;;;;;;1.75;0.80;;;18.40;17.30;;;;;;5099489;28;20394;-83
2023/04/23 11:07:05;;;;;;;1.80;0.90;;;18.50;16.90;;;;;;5068378;28;20393;-83
2023/04/23 11:09:37;;;;;;;1.95;0.90;;;18.50;18.80;;;;;;5087311;28;20795;-82
2023/04/23 11:12:05;;;;;;;2.20;1.30;;;18.70;15.80;;;;;;5092664;28;20736;-83
2023/04/23 11:14:41;;;;;;;1.10;0.70;;;18.40;15.70;;;;;;5095966;28;20378;-84
2023/04/23 11:17:11;;;;;;;1.85;1.00;;;18.10;16.80;;;;;;5076358;28;20891;-83
2023/04/23 11:19:38;;;;;;;1.42;0.90;;;18.20;17.00;;;;;;5095523;28;20883;-83
2023/04/23 11:22:15;;;;;;;1.85;0.90;;;18.70;15.20;;;;;;5077548;28;20435;-84
2023/04/23 11:24:43;;;;;;;2.20;1.00;;;19.20;14.60;;;;;;5078286;28;20408;-82
2023/04/23 11:27:16;;;;;;;0.87;0.80;;;19.20;14.40;;;;;;5095932;28;20385;-83
2023/04/23 11:29:43;;;;;;;1.00;0.80;;;19.00;14.40;;;;;;5096127;28;20378;-83
2023/04/23 11:32:12;;;;;;;3.70;1.20;;;18.80;15.50;;;;;;5081754;28;20382;-84
2023/04/23 11:34:42;;;;;;;1.60;0.90;;;18.70;16.10;;;;;;5083711;28;20382;-83
2023/04/23 11:37:15;;;;;;;2.22;1.10;;;19.10;14.60;;;;;;5083712;28;20390;-83
2023/04/23 11:39:46;;;;;;;1.10;0.80;;;20.40;11.70;;;;;;5080141;28;20382;-83
2023/04/23 11:42:13;;;;;;;1.30;0.90;;;21.10;6.80;;;;;;5077808;28;20382;-84
2023/04/23 11:44:40;;;;;;;0.90;0.90;;;19.90;5.90;;;;;;5078076;28;20402;-84
2023/04/23 11:47:11;;;;;;;2.00;0.90;;;20.80;8.80;;;;;;5103049;28;20378;-83
2023/04/23 11:49:37;;;;;;;1.25;0.80;;;21.30;4.60;;;;;;5103574;28;20458;-84
2023/04/23 11:52:03;;;;;;;2.40;0.80;;;20.40;5.70;;;;;;5082813;28;21003;-84
2023/04/23 11:54:28;;;;;;;2.10;0.80;;;20.70;5.70;;;;;;5096889;28;20429;-83
2023/04/23 11:56:55;;;;;;;0.90;0.80;;;21.90;1.80;;;;;;5078541;28;20394;-84
2023/04/23 11:59:21;;;;;;;1.73;0.90;;;20.80;1.00;;;;;;5082742;28;20894;-83
2023/04/23 12:01:50;;;;;;;2.53;1.03;;;20.40;4.70;;;;;;5063146;28;20383;-84
2023/04/23 12:04:20;;;;;;;2.20;1.20;;;20.90;5.20;;;;;;5080340;28;20443;-85
2023/04/23 12:06:47;;;;;;;2.30;0.90;;;20.20;3.80;;;;;;5065031;28;20376;-83
2023/04/23 12:09:15;;;;;;;2.33;1.10;;;20.10;3.70;;;;;;5063040;28;20395;-84
2023/04/23 12:11:42;;;;;;;3.00;1.10;;;19.90;6.20;;;;;;5062298;28;20380;-83
2023/04/23 12:14:09;;;;;;;1.60;1.00;;;19.80;4.80;;;;;;5063389;28;20438;-83
2023/04/23 12:16:45;;;;;;;1.00;0.90;;;19.60;5.80;;;;;;5080233;28;20434;-84
2023/04/23 12:19:24;;;;;;;1.40;1.00;;;19.40;8.10;;;;;;5080931;28;20375;-84
2023/04/23 12:21:59;;;;;;;1.80;1.00;;;19.60;8.90;;;;;;5062528;28;20380;-85
2023/04/23 12:24:29;;;;;;;1.77;1.10;;;19.50;8.60;;;;;;5080574;28;20407;-84
2023/04/23 12:26:59;;;;;;;1.27;1.10;;;20.20;8.30;;;;;;5093034;28;20376;-84
2023/04/23 12:29:27;;;;;;;2.22;1.10;;;20.70;6.40;;;;;;5080782;28;20915;-85
2023/04/23 12:31:57;;;;;;;1.83;1.30;;;20.70;5.90;;;;;;5081908;28;20387;-84
2023/04/23 12:34:23;;;;;;;3.20;1.20;;;20.80;6.20;;;;;;5080938;28;20403;-85
2023/04/23 12:36:55;;;;;;;3.40;1.23;;;20.70;5.00;;;;;;5080146;28;20383;-84
2023/04/23 12:39:30;;;;;;;2.25;1.10;;;20.90;3.30;;;;;;5079656;28;20390;-84
2023/04/23 12:41:58;;;;;;;1.60;1.50;;;20.80;6.00;;;;;;5079339;28;20399;-84
2023/04/23 12:44:25;;;;;;;3.10;1.43;;;21.10;3.30;;;;;;5079147;28;20751;-84
2023/04/23 12:47:03;;;;;;;1.70;1.60;;;21.40;1.00;;;;;;5060618;28;20443;-84